sensor_id;sensor_type;location;lat;lon;timestamp;P1;durP1;ratioP1;P2;durP2;ratioP2
8225;SDS011;4154;48.810;9.012;2022-09-09T00:02:05;4.05;;;1.63;;
8225;SDS011;4154;48.810;9.012;2022-09-09T00:04:52;3.00;;;1.55;;
8225;SDS011;4154;48.810;9.012;2022-09-09T00:10:17;3.28;;;1.50;;
8225;SDS011;4154;48.810;9.012;2022-09-09T00:15:40;2.70;;;1.40;;
8225;SDS011;4154;48.810;9.012;2022-09-09T00:18:52;1.92;;;1.40;;
8225;SDS011;4154;48.810;9.012;2022-09-09T00:21:38;1.50;;;1.38;;
8225;SDS011;4154;48.810;9.012;2022-09-09T00:27:07;3.03;;;1.38;;
8225;SDS011;4154;48.810;9.012;2022-09-09T00:30:12;2.53;;;1.48;;
8225;SDS011;4154;48.810;9.012;2022-09-09T00:32:39;2.70;;;1.42;;
8225;SDS011;4154;48.810;9.012;2022-09-09T00:35:22;3.15;;;1.33;;
8225;SDS011;4154;48.810;9.012;2022-09-09T00:37:56;3.72;;;1.50;;
8225;SDS011;4154;48.810;9.012;2022-09-09T00:40:35;2.05;;;1.23;;
8225;SDS011;4154;48.810;9.012;2022-09-09T00:52:08;2.20;;;1.30;;
8225;SDS011;4154;48.810;9.012;2022-09-09T00:57:48;2.70;;;1.45;;
8225;SDS011;4154;48.810;9.012;2022-09-09T01:00:19;3.72;;;1.40;;
8225;SDS011;4154;48.810;9.012;2022-09-09T01:20:39;1.95;;;1.40;;
8225;SDS011;4154;48.810;9.012;2022-09-09T01:26:10;2.78;;;1.25;;
8225;SDS011;4154;48.810;9.012;2022-09-09T01:28:46;2.05;;;1.30;;
8225;SDS011;4154;48.810;9.012;2022-09-09T01:31:20;3.63;;;1.60;;
8225;SDS011;4154;48.810;9.012;2022-09-09T01:34:07;1.77;;;1.20;;
8225;SDS011;4154;48.810;9.012;2022-09-09T01:36:41;3.25;;;1.35;;
8225;SDS011;4154;48.810;9.012;2022-09-09T01:39:31;2.83;;;1.40;;
8225;SDS011;4154;48.810;9.012;2022-09-09T01:41:59;2.88;;;1.30;;
8225;SDS011;4154;48.810;9.012;2022-09-09T01:44:28;2.88;;;1.40;;
8225;SDS011;4154;48.810;9.012;2022-09-09T01:46:56;2.83;;;1.20;;
8225;SDS011;4154;48.810;9.012;2022-09-09T01:49:22;3.45;;;1.40;;
8225;SDS011;4154;48.810;9.012;2022-09-09T01:51:52;1.75;;;1.27;;
8225;SDS011;4154;48.810;9.012;2022-09-09T01:54:21;2.80;;;1.55;;
8225;SDS011;4154;48.810;9.012;2022-09-09T01:56:58;2.47;;;1.23;;
8225;SDS011;4154;48.810;9.012;2022-09-09T01:59:56;3.88;;;1.30;;
8225;SDS011;4154;48.810;9.012;2022-09-09T02:05:40;1.98;;;1.33;;
8225;SDS011;4154;48.810;9.012;2022-09-09T02:08:17;2.95;;;1.20;;
8225;SDS011;4154;48.810;9.012;2022-09-09T02:11:07;2.05;;;1.20;;
8225;SDS011;4154;48.810;9.012;2022-09-09T02:13:43;1.98;;;1.33;;
8225;SDS011;4154;48.810;9.012;2022-09-09T02:18:51;2.08;;;1.35;;
8225;SDS011;4154;48.810;9.012;2022-09-09T02:21:50;2.90;;;1.38;;
8225;SDS011;4154;48.810;9.012;2022-09-09T02:24:19;1.83;;;1.50;;
8225;SDS011;4154;48.810;9.012;2022-09-09T02:26:48;2.30;;;1.40;;
8225;SDS011;4154;48.810;9.012;2022-09-09T02:29:20;1.52;;;1.20;;
8225;SDS011;4154;48.810;9.012;2022-09-09T02:31:52;2.85;;;1.50;;
8225;SDS011;4154;48.810;9.012;2022-09-09T02:34:25;1.70;;;1.25;;
8225;SDS011;4154;48.810;9.012;2022-09-09T02:36:55;2.83;;;1.27;;
8225;SDS011;4154;48.810;9.012;2022-09-09T02:39:25;2.20;;;1.20;;
8225;SDS011;4154;48.810;9.012;2022-09-09T02:41:51;2.95;;;1.10;;
8225;SDS011;4154;48.810;9.012;2022-09-09T02:44:18;4.38;;;1.20;;
8225;SDS011;4154;48.810;9.012;2022-09-09T02:52:54;1.25;;;0.88;;
8225;SDS011;4154;48.810;9.012;2022-09-09T02:58:27;1.95;;;1.08;;
8225;SDS011;4154;48.810;9.012;2022-09-09T03:00:53;1.65;;;1.05;;
8225;SDS011;4154;48.810;9.012;2022-09-09T03:03:22;2.33;;;1.20;;
8225;SDS011;4154;48.810;9.012;2022-09-09T03:05:48;1.58;;;1.10;;
8225;SDS011;4154;48.810;9.012;2022-09-09T03:08:15;2.08;;;1.10;;
8225;SDS011;4154;48.810;9.012;2022-09-09T03:10:42;1.25;;;1.15;;
8225;SDS011;4154;48.810;9.012;2022-09-09T03:13:08;1.77;;;1.02;;
8225;SDS011;4154;48.810;9.012;2022-09-09T03:15:34;2.38;;;1.27;;
8225;SDS011;4154;48.810;9.012;2022-09-09T03:18:00;1.63;;;1.10;;
8225;SDS011;4154;48.810;9.012;2022-09-09T03:20:27;2.17;;;1.17;;
8225;SDS011;4154;48.810;9.012;2022-09-09T03:22:55;2.72;;;1.30;;
8225;SDS011;4154;48.810;9.012;2022-09-09T03:25:22;2.40;;;1.15;;
8225;SDS011;4154;48.810;9.012;2022-09-09T03:27:51;1.10;;;1.00;;
8225;SDS011;4154;48.810;9.012;2022-09-09T03:30:24;1.67;;;1.23;;
8225;SDS011;4154;48.810;9.012;2022-09-09T03:32:51;2.03;;;1.08;;
8225;SDS011;4154;48.810;9.012;2022-09-09T03:35:18;2.35;;;1.10;;
8225;SDS011;4154;48.810;9.012;2022-09-09T03:37:44;5.47;;;1.20;;
8225;SDS011;4154;48.810;9.012;2022-09-09T03:40:10;2.63;;;1.20;;
8225;SDS011;4154;48.810;9.012;2022-09-09T03:42:37;2.95;;;1.30;;
8225;SDS011;4154;48.810;9.012;2022-09-09T03:45:05;3.60;;;1.20;;
8225;SDS011;4154;48.810;9.012;2022-09-09T03:47:34;1.38;;;0.90;;
8225;SDS011;4154;48.810;9.012;2022-09-09T03:50:00;4.40;;;1.20;;
8225;SDS011;4154;48.810;9.012;2022-09-09T03:52:26;1.08;;;0.90;;
8225;SDS011;4154;48.810;9.012;2022-09-09T03:54:52;2.10;;;1.15;;
8225;SDS011;4154;48.810;9.012;2022-09-09T03:57:19;2.95;;;1.10;;
8225;SDS011;4154;48.810;9.012;2022-09-09T03:59:46;0.93;;;0.80;;
8225;SDS011;4154;48.810;9.012;2022-09-09T04:02:12;2.47;;;1.02;;
8225;SDS011;4154;48.810;9.012;2022-09-09T04:04:38;1.25;;;1.10;;
8225;SDS011;4154;48.810;9.012;2022-09-09T04:07:04;1.63;;;0.88;;
8225;SDS011;4154;48.810;9.012;2022-09-09T04:09:31;2.25;;;0.90;;
8225;SDS011;4154;48.810;9.012;2022-09-09T04:11:59;2.75;;;1.10;;
8225;SDS011;4154;48.810;9.012;2022-09-09T04:14:25;1.27;;;1.17;;
8225;SDS011;4154;48.810;9.012;2022-09-09T04:16:53;1.73;;;1.15;;
8225;SDS011;4154;48.810;9.012;2022-09-09T04:19:22;2.10;;;1.10;;
8225;SDS011;4154;48.810;9.012;2022-09-09T04:21:48;1.42;;;1.10;;
8225;SDS011;4154;48.810;9.012;2022-09-09T04:24:15;1.17;;;1.00;;
8225;SDS011;4154;48.810;9.012;2022-09-09T04:26:41;1.98;;;1.20;;
8225;SDS011;4154;48.810;9.012;2022-09-09T04:29:07;3.33;;;1.25;;
8225;SDS011;4154;48.810;9.012;2022-09-09T04:31:33;1.30;;;1.10;;
8225;SDS011;4154;48.810;9.012;2022-09-09T04:33:59;2.58;;;1.20;;
8225;SDS011;4154;48.810;9.012;2022-09-09T04:36:30;1.67;;;0.90;;
8225;SDS011;4154;48.810;9.012;2022-09-09T04:38:57;3.28;;;1.10;;
8225;SDS011;4154;48.810;9.012;2022-09-09T04:41:23;2.35;;;1.10;;
8225;SDS011;4154;48.810;9.012;2022-09-09T04:43:49;1.35;;;0.85;;
8225;SDS011;4154;48.810;9.012;2022-09-09T04:46:18;4.50;;;1.25;;
8225;SDS011;4154;48.810;9.012;2022-09-09T04:48:45;1.38;;;1.13;;
8225;SDS011;4154;48.810;9.012;2022-09-09T04:51:12;1.55;;;1.10;;
8225;SDS011;4154;48.810;9.012;2022-09-09T04:53:39;3.30;;;1.20;;
8225;SDS011;4154;48.810;9.012;2022-09-09T04:56:06;2.45;;;1.15;;
8225;SDS011;4154;48.810;9.012;2022-09-09T04:58:35;3.28;;;1.23;;
8225;SDS011;4154;48.810;9.012;2022-09-09T05:01:06;2.08;;;1.10;;
8225;SDS011;4154;48.810;9.012;2022-09-09T05:03:37;1.98;;;1.20;;
8225;SDS011;4154;48.810;9.012;2022-09-09T05:06:11;2.33;;;1.20;;
8225;SDS011;4154;48.810;9.012;2022-09-09T05:08:42;2.42;;;1.15;;
8225;SDS011;4154;48.810;9.012;2022-09-09T05:11:28;4.18;;;1.25;;
8225;SDS011;4154;48.810;9.012;2022-09-09T05:13:57;2.35;;;1.38;;
8225;SDS011;4154;48.810;9.012;2022-09-09T05:18:52;2.78;;;1.17;;
8225;SDS011;4154;48.810;9.012;2022-09-09T05:21:19;2.13;;;1.17;;
8225;SDS011;4154;48.810;9.012;2022-09-09T05:23:48;3.50;;;1.30;;
8225;SDS011;4154;48.810;9.012;2022-09-09T05:26:16;1.83;;;1.23;;
8225;SDS011;4154;48.810;9.012;2022-09-09T05:28:45;5.80;;;1.30;;
8225;SDS011;4154;48.810;9.012;2022-09-09T05:31:13;1.05;;;1.05;;
8225;SDS011;4154;48.810;9.012;2022-09-09T05:33:42;1.80;;;1.20;;
8225;SDS011;4154;48.810;9.012;2022-09-09T05:36:12;2.67;;;1.40;;
8225;SDS011;4154;48.810;9.012;2022-09-09T05:38:42;2.92;;;1.17;;
8225;SDS011;4154;48.810;9.012;2022-09-09T05:41:09;2.20;;;1.30;;
8225;SDS011;4154;48.810;9.012;2022-09-09T05:43:36;2.35;;;1.25;;
8225;SDS011;4154;48.810;9.012;2022-09-09T05:46:04;3.47;;;1.40;;
8225;SDS011;4154;48.810;9.012;2022-09-09T05:48:39;2.08;;;1.40;;
8225;SDS011;4154;48.810;9.012;2022-09-09T05:51:12;3.35;;;1.20;;
8225;SDS011;4154;48.810;9.012;2022-09-09T05:53:44;4.55;;;1.75;;
8225;SDS011;4154;48.810;9.012;2022-09-09T05:56:12;2.45;;;1.30;;
8225;SDS011;4154;48.810;9.012;2022-09-09T05:58:53;2.40;;;1.48;;
8225;SDS011;4154;48.810;9.012;2022-09-09T06:04:00;2.97;;;1.40;;
8225;SDS011;4154;48.810;9.012;2022-09-09T06:06:30;5.13;;;1.40;;
8225;SDS011;4154;48.810;9.012;2022-09-09T06:09:02;1.92;;;1.30;;
8225;SDS011;4154;48.810;9.012;2022-09-09T06:11:35;2.50;;;1.40;;
8225;SDS011;4154;48.810;9.012;2022-09-09T06:14:03;1.55;;;1.30;;
8225;SDS011;4154;48.810;9.012;2022-09-09T06:16:30;2.00;;;1.20;;
8225;SDS011;4154;48.810;9.012;2022-09-09T06:18:57;2.92;;;1.30;;
8225;SDS011;4154;48.810;9.012;2022-09-09T06:23:53;4.43;;;1.58;;
8225;SDS011;4154;48.810;9.012;2022-09-09T06:28:51;3.60;;;1.40;;
8225;SDS011;4154;48.810;9.012;2022-09-09T06:31:20;4.85;;;1.35;;
8225;SDS011;4154;48.810;9.012;2022-09-09T06:33:49;2.28;;;1.30;;
8225;SDS011;4154;48.810;9.012;2022-09-09T06:36:22;2.75;;;1.27;;
8225;SDS011;4154;48.810;9.012;2022-09-09T06:38:51;2.70;;;1.30;;
8225;SDS011;4154;48.810;9.012;2022-09-09T06:41:18;3.05;;;1.23;;
8225;SDS011;4154;48.810;9.012;2022-09-09T06:43:46;2.60;;;1.30;;
8225;SDS011;4154;48.810;9.012;2022-09-09T06:46:16;3.08;;;1.40;;
8225;SDS011;4154;48.810;9.012;2022-09-09T06:48:43;1.50;;;1.20;;
8225;SDS011;4154;48.810;9.012;2022-09-09T06:51:12;2.03;;;1.40;;
8225;SDS011;4154;48.810;9.012;2022-09-09T06:53:46;3.50;;;1.30;;
8225;SDS011;4154;48.810;9.012;2022-09-09T06:56:20;3.05;;;1.50;;
8225;SDS011;4154;48.810;9.012;2022-09-09T06:58:49;2.47;;;1.40;;
8225;SDS011;4154;48.810;9.012;2022-09-09T07:01:26;2.30;;;1.23;;
8225;SDS011;4154;48.810;9.012;2022-09-09T07:03:55;3.83;;;1.40;;
8225;SDS011;4154;48.810;9.012;2022-09-09T07:06:28;2.90;;;1.45;;
8225;SDS011;4154;48.810;9.012;2022-09-09T07:09:06;4.60;;;1.40;;
8225;SDS011;4154;48.810;9.012;2022-09-09T07:11:39;2.15;;;1.30;;
8225;SDS011;4154;48.810;9.012;2022-09-09T07:14:14;2.58;;;1.40;;
8225;SDS011;4154;48.810;9.012;2022-09-09T07:16:41;2.80;;;1.30;;
8225;SDS011;4154;48.810;9.012;2022-09-09T07:19:08;4.22;;;1.73;;
8225;SDS011;4154;48.810;9.012;2022-09-09T07:21:35;2.30;;;1.40;;
8225;SDS011;4154;48.810;9.012;2022-09-09T07:24:01;2.70;;;1.23;;
8225;SDS011;4154;48.810;9.012;2022-09-09T07:26:29;2.38;;;1.30;;
8225;SDS011;4154;48.810;9.012;2022-09-09T07:28:56;3.70;;;1.30;;
8225;SDS011;4154;48.810;9.012;2022-09-09T07:31:28;1.75;;;1.30;;
8225;SDS011;4154;48.810;9.012;2022-09-09T07:33:57;2.97;;;1.30;;
8225;SDS011;4154;48.810;9.012;2022-09-09T07:36:28;2.38;;;1.30;;
8225;SDS011;4154;48.810;9.012;2022-09-09T07:39:01;1.92;;;1.27;;
8225;SDS011;4154;48.810;9.012;2022-09-09T07:41:32;2.35;;;1.52;;
8225;SDS011;4154;48.810;9.012;2022-09-09T07:44:05;1.88;;;1.15;;
8225;SDS011;4154;48.810;9.012;2022-09-09T07:46:43;3.30;;;1.50;;
8225;SDS011;4154;48.810;9.012;2022-09-09T07:49:10;1.20;;;1.10;;
8225;SDS011;4154;48.810;9.012;2022-09-09T07:51:38;1.55;;;1.20;;
8225;SDS011;4154;48.810;9.012;2022-09-09T07:54:07;2.90;;;1.08;;
8225;SDS011;4154;48.810;9.012;2022-09-09T07:56:37;2.35;;;1.17;;
8225;SDS011;4154;48.810;9.012;2022-09-09T07:59:04;2.70;;;1.30;;
8225;SDS011;4154;48.810;9.012;2022-09-09T08:04:11;2.65;;;1.42;;
8225;SDS011;4154;48.810;9.012;2022-09-09T08:06:41;2.42;;;1.10;;
8225;SDS011;4154;48.810;9.012;2022-09-09T08:09:13;1.30;;;1.00;;
8225;SDS011;4154;48.810;9.012;2022-09-09T08:11:40;2.72;;;1.20;;
8225;SDS011;4154;48.810;9.012;2022-09-09T08:14:09;3.17;;;1.15;;
8225;SDS011;4154;48.810;9.012;2022-09-09T08:16:40;2.35;;;1.10;;
8225;SDS011;4154;48.810;9.012;2022-09-09T08:19:12;2.35;;;1.30;;
8225;SDS011;4154;48.810;9.012;2022-09-09T08:21:40;1.45;;;1.15;;
8225;SDS011;4154;48.810;9.012;2022-09-09T08:24:07;2.78;;;1.23;;
8225;SDS011;4154;48.810;9.012;2022-09-09T08:26:42;1.70;;;1.20;;
8225;SDS011;4154;48.810;9.012;2022-09-09T08:29:11;3.72;;;1.20;;
8225;SDS011;4154;48.810;9.012;2022-09-09T08:31:43;4.10;;;1.20;;
8225;SDS011;4154;48.810;9.012;2022-09-09T08:34:20;3.10;;;1.30;;
8225;SDS011;4154;48.810;9.012;2022-09-09T08:36:47;2.22;;;1.00;;
8225;SDS011;4154;48.810;9.012;2022-09-09T08:39:15;2.92;;;1.40;;
8225;SDS011;4154;48.810;9.012;2022-09-09T08:50:39;2.20;;;1.17;;
8225;SDS011;4154;48.810;9.012;2022-09-09T08:53:01;1.52;;;0.90;;
8225;SDS011;4154;48.810;9.012;2022-09-09T08:55:45;2.20;;;1.20;;
8225;SDS011;4154;48.810;9.012;2022-09-09T08:58:28;3.47;;;1.10;;
8225;SDS011;4154;48.810;9.012;2022-09-09T09:07:13;4.53;;;1.15;;
8225;SDS011;4154;48.810;9.012;2022-09-09T09:13:01;2.85;;;1.20;;
8225;SDS011;4154;48.810;9.012;2022-09-09T09:15:33;2.42;;;1.15;;
8225;SDS011;4154;48.810;9.012;2022-09-09T09:18:03;1.45;;;1.00;;
8225;SDS011;4154;48.810;9.012;2022-09-09T09:20:38;3.20;;;1.15;;
8225;SDS011;4154;48.810;9.012;2022-09-09T09:23:36;3.30;;;1.15;;
8225;SDS011;4154;48.810;9.012;2022-09-09T09:26:21;4.57;;;1.13;;
8225;SDS011;4154;48.810;9.012;2022-09-09T09:28:55;4.45;;;1.60;;
8225;SDS011;4154;48.810;9.012;2022-09-09T09:31:24;3.38;;;1.42;;
8225;SDS011;4154;48.810;9.012;2022-09-09T09:33:55;3.35;;;1.23;;
8225;SDS011;4154;48.810;9.012;2022-09-09T09:36:34;2.55;;;1.25;;
8225;SDS011;4154;48.810;9.012;2022-09-09T09:39:07;2.53;;;1.20;;
8225;SDS011;4154;48.810;9.012;2022-09-09T09:41:41;2.42;;;1.20;;
8225;SDS011;4154;48.810;9.012;2022-09-09T09:44:27;3.50;;;1.17;;
8225;SDS011;4154;48.810;9.012;2022-09-09T09:47:07;3.08;;;1.17;;
8225;SDS011;4154;48.810;9.012;2022-09-09T09:49:38;1.65;;;1.00;;
8225;SDS011;4154;48.810;9.012;2022-09-09T09:52:15;1.60;;;1.08;;
8225;SDS011;4154;48.810;9.012;2022-09-09T09:54:47;2.40;;;1.00;;
8225;SDS011;4154;48.810;9.012;2022-09-09T09:57:14;1.73;;;0.90;;
8225;SDS011;4154;48.810;9.012;2022-09-09T09:59:43;1.98;;;0.90;;
8225;SDS011;4154;48.810;9.012;2022-09-09T10:04:42;3.15;;;1.15;;
8225;SDS011;4154;48.810;9.012;2022-09-09T10:07:17;3.00;;;1.10;;
8225;SDS011;4154;48.810;9.012;2022-09-09T10:09:46;3.65;;;1.20;;
8225;SDS011;4154;48.810;9.012;2022-09-09T10:12:24;2.97;;;1.10;;
8225;SDS011;4154;48.810;9.012;2022-09-09T10:18:16;2.72;;;1.20;;
8225;SDS011;4154;48.810;9.012;2022-09-09T10:21:06;3.30;;;1.15;;
8225;SDS011;4154;48.810;9.012;2022-09-09T10:46:49;2.85;;;1.48;;
8225;SDS011;4154;48.810;9.012;2022-09-09T10:55:51;3.55;;;1.67;;
8225;SDS011;4154;48.810;9.012;2022-09-09T10:59:27;4.15;;;1.48;;
8225;SDS011;4154;48.810;9.012;2022-09-09T11:04:29;3.83;;;1.40;;
8225;SDS011;4154;48.810;9.012;2022-09-09T11:07:10;4.18;;;1.40;;
8225;SDS011;4154;48.810;9.012;2022-09-09T11:09:53;1.95;;;1.10;;
8225;SDS011;4154;48.810;9.012;2022-09-09T11:12:31;5.60;;;1.38;;
8225;SDS011;4154;48.810;9.012;2022-09-09T11:15:05;5.25;;;1.25;;
8225;SDS011;4154;48.810;9.012;2022-09-09T11:17:46;3.22;;;1.35;;
8225;SDS011;4154;48.810;9.012;2022-09-09T11:20:23;3.20;;;1.20;;
8225;SDS011;4154;48.810;9.012;2022-09-09T11:22:53;3.10;;;1.10;;
8225;SDS011;4154;48.810;9.012;2022-09-09T11:25:39;2.40;;;1.05;;
8225;SDS011;4154;48.810;9.012;2022-09-09T11:28:34;1.40;;;1.00;;
8225;SDS011;4154;48.810;9.012;2022-09-09T11:40:27;0.93;;;0.57;;
8225;SDS011;4154;48.810;9.012;2022-09-09T11:43:09;0.70;;;0.50;;
8225;SDS011;4154;48.810;9.012;2022-09-09T11:45:59;1.33;;;0.73;;
8225;SDS011;4154;48.810;9.012;2022-09-09T11:48:37;1.13;;;0.70;;
8225;SDS011;4154;48.810;9.012;2022-09-09T11:56:44;1.75;;;0.82;;
8225;SDS011;4154;48.810;9.012;2022-09-09T12:04:46;0.80;;;0.80;;
8225;SDS011;4154;48.810;9.012;2022-09-09T12:12:34;0.85;;;0.73;;
8225;SDS011;4154;48.810;9.012;2022-09-09T12:15:16;1.25;;;0.77;;
8225;SDS011;4154;48.810;9.012;2022-09-09T12:17:55;0.77;;;0.77;;
8225;SDS011;4154;48.810;9.012;2022-09-09T12:26:32;1.75;;;0.80;;
8225;SDS011;4154;48.810;9.012;2022-09-09T12:29:05;1.42;;;0.80;;
8225;SDS011;4154;48.810;9.012;2022-09-09T12:32:00;1.38;;;0.80;;
8225;SDS011;4154;48.810;9.012;2022-09-09T12:34:44;1.35;;;0.90;;
8225;SDS011;4154;48.810;9.012;2022-09-09T12:40:00;1.35;;;0.73;;
8225;SDS011;4154;48.810;9.012;2022-09-09T12:42:49;1.45;;;0.70;;
8225;SDS011;4154;48.810;9.012;2022-09-09T12:45:17;1.40;;;0.75;;
8225;SDS011;4154;48.810;9.012;2022-09-09T12:48:00;1.05;;;0.70;;
8225;SDS011;4154;48.810;9.012;2022-09-09T12:50:34;2.35;;;1.00;;
8225;SDS011;4154;48.810;9.012;2022-09-09T12:53:09;2.72;;;0.75;;
8225;SDS011;4154;48.810;9.012;2022-09-09T12:55:49;2.47;;;0.80;;
8225;SDS011;4154;48.810;9.012;2022-09-09T12:58:19;1.20;;;0.85;;
8225;SDS011;4154;48.810;9.012;2022-09-09T13:00:49;1.85;;;0.80;;
8225;SDS011;4154;48.810;9.012;2022-09-09T13:03:22;1.10;;;0.80;;
8225;SDS011;4154;48.810;9.012;2022-09-09T13:05:50;1.15;;;0.68;;
8225;SDS011;4154;48.810;9.012;2022-09-09T13:08:18;1.60;;;0.80;;
8225;SDS011;4154;48.810;9.012;2022-09-09T13:10:49;1.10;;;0.70;;
8225;SDS011;4154;48.810;9.012;2022-09-09T13:13:26;1.45;;;0.80;;
8225;SDS011;4154;48.810;9.012;2022-09-09T13:15:58;1.58;;;0.60;;
8225;SDS011;4154;48.810;9.012;2022-09-09T13:18:44;2.50;;;0.90;;
8225;SDS011;4154;48.810;9.012;2022-09-09T13:21:11;1.40;;;0.70;;
8225;SDS011;4154;48.810;9.012;2022-09-09T13:23:37;2.38;;;0.90;;
8225;SDS011;4154;48.810;9.012;2022-09-09T13:26:05;2.75;;;0.80;;
8225;SDS011;4154;48.810;9.012;2022-09-09T13:28:48;2.55;;;0.80;;
8225;SDS011;4154;48.810;9.012;2022-09-09T13:31:21;1.15;;;0.60;;
8225;SDS011;4154;48.810;9.012;2022-09-09T13:33:54;1.05;;;0.75;;
8225;SDS011;4154;48.810;9.012;2022-09-09T13:36:27;1.63;;;0.70;;
8225;SDS011;4154;48.810;9.012;2022-09-09T13:38:59;3.08;;;1.08;;
8225;SDS011;4154;48.810;9.012;2022-09-09T13:41:30;2.92;;;0.90;;
8225;SDS011;4154;48.810;9.012;2022-09-09T13:44:22;1.92;;;0.80;;
8225;SDS011;4154;48.810;9.012;2022-09-09T13:47:00;1.30;;;0.90;;
8225;SDS011;4154;48.810;9.012;2022-09-09T13:49:41;1.35;;;0.80;;
8225;SDS011;4154;48.810;9.012;2022-09-09T13:52:11;1.70;;;0.75;;
8225;SDS011;4154;48.810;9.012;2022-09-09T13:54:40;2.17;;;1.00;;
8225;SDS011;4154;48.810;9.012;2022-09-09T13:57:49;0.80;;;0.68;;
8225;SDS011;4154;48.810;9.012;2022-09-09T13:59:59;1.40;;;0.80;;
8225;SDS011;4154;48.810;9.012;2022-09-09T14:02:25;2.05;;;0.90;;
8225;SDS011;4154;48.810;9.012;2022-09-09T14:04:51;2.22;;;0.90;;
8225;SDS011;4154;48.810;9.012;2022-09-09T14:07:20;1.90;;;0.75;;
8225;SDS011;4154;48.810;9.012;2022-09-09T14:09:46;1.67;;;0.90;;
8225;SDS011;4154;48.810;9.012;2022-09-09T14:12:16;2.72;;;0.85;;
8225;SDS011;4154;48.810;9.012;2022-09-09T14:14:43;2.28;;;0.98;;
8225;SDS011;4154;48.810;9.012;2022-09-09T14:17:09;2.60;;;1.08;;
8225;SDS011;4154;48.810;9.012;2022-09-09T14:19:35;2.38;;;0.80;;
8225;SDS011;4154;48.810;9.012;2022-09-09T14:22:02;1.75;;;0.73;;
8225;SDS011;4154;48.810;9.012;2022-09-09T14:24:28;1.20;;;0.60;;
8225;SDS011;4154;48.810;9.012;2022-09-09T14:26:54;2.13;;;0.70;;
8225;SDS011;4154;48.810;9.012;2022-09-09T14:29:21;1.58;;;0.90;;
8225;SDS011;4154;48.810;9.012;2022-09-09T14:31:46;1.55;;;0.80;;
8225;SDS011;4154;48.810;9.012;2022-09-09T14:34:12;1.63;;;0.90;;
8225;SDS011;4154;48.810;9.012;2022-09-09T14:36:39;2.80;;;0.90;;
8225;SDS011;4154;48.810;9.012;2022-09-09T14:39:06;1.88;;;0.85;;
8225;SDS011;4154;48.810;9.012;2022-09-09T14:41:32;1.63;;;0.82;;
8225;SDS011;4154;48.810;9.012;2022-09-09T14:43:58;2.95;;;0.90;;
8225;SDS011;4154;48.810;9.012;2022-09-09T14:46:24;0.47;;;0.47;;
8225;SDS011;4154;48.810;9.012;2022-09-09T14:48:51;1.52;;;0.80;;
8225;SDS011;4154;48.810;9.012;2022-09-09T14:51:19;2.10;;;0.88;;
8225;SDS011;4154;48.810;9.012;2022-09-09T14:53:47;1.42;;;0.60;;
8225;SDS011;4154;48.810;9.012;2022-09-09T14:56:18;1.10;;;0.68;;
8225;SDS011;4154;48.810;9.012;2022-09-09T14:58:47;1.05;;;0.60;;
8225;SDS011;4154;48.810;9.012;2022-09-09T15:01:17;1.23;;;0.88;;
8225;SDS011;4154;48.810;9.012;2022-09-09T15:03:52;0.85;;;0.50;;
8225;SDS011;4154;48.810;9.012;2022-09-09T15:06:24;1.42;;;0.90;;
8225;SDS011;4154;48.810;9.012;2022-09-09T15:08:52;2.22;;;0.70;;
8225;SDS011;4154;48.810;9.012;2022-09-09T15:11:19;0.88;;;0.68;;
8225;SDS011;4154;48.810;9.012;2022-09-09T15:16:18;0.98;;;0.50;;
8225;SDS011;4154;48.810;9.012;2022-09-09T15:18:45;0.85;;;0.60;;
8225;SDS011;4154;48.810;9.012;2022-09-09T15:21:15;1.05;;;0.63;;
8225;SDS011;4154;48.810;9.012;2022-09-09T15:23:44;2.88;;;0.82;;
8225;SDS011;4154;48.810;9.012;2022-09-09T15:26:11;1.45;;;0.90;;
8225;SDS011;4154;48.810;9.012;2022-09-09T15:28:39;2.13;;;0.95;;
8225;SDS011;4154;48.810;9.012;2022-09-09T15:31:12;1.02;;;0.68;;
8225;SDS011;4154;48.810;9.012;2022-09-09T15:33:53;1.25;;;0.77;;
8225;SDS011;4154;48.810;9.012;2022-09-09T15:36:34;1.55;;;0.80;;
8225;SDS011;4154;48.810;9.012;2022-09-09T15:39:00;0.82;;;0.70;;
8225;SDS011;4154;48.810;9.012;2022-09-09T15:41:28;1.27;;;0.85;;
8225;SDS011;4154;48.810;9.012;2022-09-09T15:43:56;0.75;;;0.60;;
8225;SDS011;4154;48.810;9.012;2022-09-09T15:46:32;1.42;;;0.82;;
8225;SDS011;4154;48.810;9.012;2022-09-09T15:51:38;2.35;;;0.88;;
8225;SDS011;4154;48.810;9.012;2022-09-09T15:54:09;1.25;;;0.88;;
8225;SDS011;4154;48.810;9.012;2022-09-09T15:56:38;2.15;;;1.08;;
8225;SDS011;4154;48.810;9.012;2022-09-09T15:59:04;1.52;;;0.85;;
8225;SDS011;4154;48.810;9.012;2022-09-09T16:01:30;1.80;;;0.90;;
8225;SDS011;4154;48.810;9.012;2022-09-09T16:03:57;1.63;;;0.90;;
8225;SDS011;4154;48.810;9.012;2022-09-09T16:06:25;1.92;;;0.95;;
8225;SDS011;4154;48.810;9.012;2022-09-09T16:08:53;2.38;;;1.00;;
8225;SDS011;4154;48.810;9.012;2022-09-09T16:11:22;3.10;;;0.90;;
8225;SDS011;4154;48.810;9.012;2022-09-09T16:14:06;1.90;;;0.80;;
8225;SDS011;4154;48.810;9.012;2022-09-09T16:16:32;1.58;;;0.80;;
8225;SDS011;4154;48.810;9.012;2022-09-09T16:19:00;2.47;;;1.00;;
8225;SDS011;4154;48.810;9.012;2022-09-09T16:21:35;1.63;;;0.50;;
8225;SDS011;4154;48.810;9.012;2022-09-09T16:24:05;0.30;;;0.30;;
8225;SDS011;4154;48.810;9.012;2022-09-09T16:26:34;1.30;;;0.55;;
8225;SDS011;4154;48.810;9.012;2022-09-09T16:29:03;1.02;;;0.40;;
8225;SDS011;4154;48.810;9.012;2022-09-09T16:31:30;0.55;;;0.30;;
8225;SDS011;4154;48.810;9.012;2022-09-09T16:33:59;0.52;;;0.50;;
8225;SDS011;4154;48.810;9.012;2022-09-09T16:36:26;1.15;;;0.65;;
8225;SDS011;4154;48.810;9.012;2022-09-09T16:38:55;0.47;;;0.47;;
8225;SDS011;4154;48.810;9.012;2022-09-09T16:41:30;0.82;;;0.47;;
8225;SDS011;4154;48.810;9.012;2022-09-09T16:44:00;0.40;;;0.28;;
8225;SDS011;4154;48.810;9.012;2022-09-09T16:46:31;0.40;;;0.40;;
8225;SDS011;4154;48.810;9.012;2022-09-09T16:49:01;0.70;;;0.40;;
8225;SDS011;4154;48.810;9.012;2022-09-09T16:51:32;0.70;;;0.68;;
8225;SDS011;4154;48.810;9.012;2022-09-09T16:54:01;1.15;;;0.60;;
8225;SDS011;4154;48.810;9.012;2022-09-09T16:56:31;0.63;;;0.30;;
8225;SDS011;4154;48.810;9.012;2022-09-09T16:59:03;1.73;;;0.70;;
8225;SDS011;4154;48.810;9.012;2022-09-09T17:01:36;0.75;;;0.63;;
8225;SDS011;4154;48.810;9.012;2022-09-09T17:04:09;0.73;;;0.70;;
8225;SDS011;4154;48.810;9.012;2022-09-09T17:06:50;0.80;;;0.60;;
8225;SDS011;4154;48.810;9.012;2022-09-09T17:09:18;1.17;;;0.70;;
8225;SDS011;4154;48.810;9.012;2022-09-09T17:11:46;0.73;;;0.60;;
8225;SDS011;4154;48.810;9.012;2022-09-09T17:14:16;0.85;;;0.70;;
8225;SDS011;4154;48.810;9.012;2022-09-09T17:16:44;2.08;;;0.80;;
8225;SDS011;4154;48.810;9.012;2022-09-09T17:19:10;1.00;;;0.90;;
8225;SDS011;4154;48.810;9.012;2022-09-09T17:21:36;0.90;;;0.82;;
8225;SDS011;4154;48.810;9.012;2022-09-09T17:24:03;2.30;;;0.90;;
8225;SDS011;4154;48.810;9.012;2022-09-09T17:26:30;1.17;;;0.88;;
8225;SDS011;4154;48.810;9.012;2022-09-09T17:28:58;0.68;;;0.68;;
8225;SDS011;4154;48.810;9.012;2022-09-09T17:31:26;1.05;;;0.82;;
8225;SDS011;4154;48.810;9.012;2022-09-09T17:33:54;2.00;;;0.75;;
8225;SDS011;4154;48.810;9.012;2022-09-09T17:36:21;1.73;;;0.60;;
8225;SDS011;4154;48.810;9.012;2022-09-09T17:38:53;1.23;;;0.80;;
8225;SDS011;4154;48.810;9.012;2022-09-09T17:41:21;3.40;;;0.93;;
8225;SDS011;4154;48.810;9.012;2022-09-09T17:43:50;0.80;;;0.80;;
8225;SDS011;4154;48.810;9.012;2022-09-09T17:46:24;1.27;;;0.90;;
8225;SDS011;4154;48.810;9.012;2022-09-09T17:48:57;0.70;;;0.70;;
8225;SDS011;4154;48.810;9.012;2022-09-09T17:51:25;1.38;;;1.00;;
8225;SDS011;4154;48.810;9.012;2022-09-09T17:53:55;0.77;;;0.77;;
8225;SDS011;4154;48.810;9.012;2022-09-09T17:56:32;1.38;;;0.90;;
8225;SDS011;4154;48.810;9.012;2022-09-09T17:59:02;1.42;;;1.27;;
8225;SDS011;4154;48.810;9.012;2022-09-09T18:01:33;1.00;;;0.82;;
8225;SDS011;4154;48.810;9.012;2022-09-09T18:04:03;0.98;;;0.93;;
8225;SDS011;4154;48.810;9.012;2022-09-09T18:06:32;1.75;;;1.00;;
8225;SDS011;4154;48.810;9.012;2022-09-09T18:09:25;1.83;;;1.00;;
8225;SDS011;4154;48.810;9.012;2022-09-09T18:11:52;1.05;;;0.90;;
8225;SDS011;4154;48.810;9.012;2022-09-09T18:14:31;2.17;;;0.90;;
8225;SDS011;4154;48.810;9.012;2022-09-09T18:16:58;1.70;;;1.10;;
8225;SDS011;4154;48.810;9.012;2022-09-09T18:19:25;1.42;;;1.00;;
8225;SDS011;4154;48.810;9.012;2022-09-09T18:21:54;1.25;;;0.98;;
8225;SDS011;4154;48.810;9.012;2022-09-09T18:24:21;0.80;;;0.80;;
8225;SDS011;4154;48.810;9.012;2022-09-09T18:26:48;1.35;;;1.20;;
8225;SDS011;4154;48.810;9.012;2022-09-09T18:29:16;1.10;;;1.00;;